createdAt,value
2022-10-20T00:01:29.819Z,25.62
2022-10-20T00:03:58.813Z,24.52
2022-10-20T00:06:30.951Z,26.02
2022-10-20T00:09:02.414Z,26.65
2022-10-20T00:11:31.409Z,26.35
2022-10-20T00:14:02.587Z,26.40
2022-10-20T00:16:33.268Z,26.17
2022-10-20T00:19:02.069Z,25.05
2022-10-20T00:21:31.473Z,25.32
2022-10-20T00:24:04.431Z,24.67
2022-10-20T00:26:33.840Z,23.57
2022-10-20T00:29:06.081Z,20.20
2022-10-20T00:31:34.837Z,21.97
2022-10-20T00:34:03.586Z,22.40
2022-10-20T00:36:32.309Z,22.00
2022-10-20T00:39:03.641Z,20.30
2022-10-20T00:41:33.148Z,20.30
2022-10-20T00:44:04.836Z,19.75
2022-10-20T00:46:42.613Z,19.15
2022-10-20T00:49:23.108Z,19.20
2022-10-20T00:51:55.078Z,18.25
2022-10-20T00:54:26.787Z,17.40
2022-10-20T00:56:58.214Z,17.27
2022-10-20T00:59:29.840Z,16.55
2022-10-20T01:02:00.730Z,16.00
2022-10-20T01:04:31.882Z,15.30
2022-10-20T01:07:02.179Z,16.70
2022-10-20T01:09:32.909Z,15.38
2022-10-20T01:12:22.636Z,16.00
2022-10-20T01:15:12.326Z,15.48
2022-10-20T01:17:53.389Z,14.07
2022-10-20T01:20:41.448Z,15.20
2022-10-20T01:23:24.857Z,13.95
2022-10-20T01:25:59.904Z,14.73
2022-10-20T01:28:50.985Z,13.98
2022-10-20T01:31:30.405Z,13.95
2022-10-20T01:34:01.758Z,13.45
2022-10-20T01:36:53.338Z,13.58
2022-10-20T01:39:33.724Z,13.88
2022-10-20T01:42:13.940Z,13.20
2022-10-20T01:44:44.613Z,12.53
2022-10-20T01:47:18.406Z,12.88
2022-10-20T01:49:48.227Z,12.35
2022-10-20T01:52:17.329Z,12.68
2022-10-20T01:54:49.245Z,12.55
2022-10-20T01:57:51.250Z,12.93
2022-10-20T02:00:41.125Z,13.65
2022-10-20T02:03:47.746Z,13.85
2022-10-20T02:06:32.781Z,13.45
2022-10-20T02:09:10.183Z,14.07
2022-10-20T02:12:21.216Z,14.50
2022-10-20T02:15:28.016Z,13.80
2022-10-20T02:18:10.239Z,14.63
2022-10-20T02:20:49.027Z,14.25
2022-10-20T02:23:38.202Z,14.63
2022-10-20T02:26:23.970Z,14.87
2022-10-20T02:29:24.843Z,15.15
2022-10-20T02:31:35.946Z,15.53
2022-10-20T02:34:14.630Z,14.23
2022-10-20T02:36:59.055Z,15.40
2022-10-20T02:39:49.984Z,14.43
2022-10-20T02:42:37.323Z,15.53
2022-10-20T02:45:31.471Z,15.15
2022-10-20T02:51:23.113Z,15.58
2022-10-20T02:54:23.525Z,15.28
2022-10-20T02:57:14.062Z,16.27
2022-10-20T03:00:18.059Z,16.17
2022-10-20T03:03:01.015Z,14.95
2022-10-20T03:08:41.926Z,14.60
2022-10-20T03:11:42.976Z,14.20
2022-10-20T03:17:21.589Z,14.70
2022-10-20T03:20:11.264Z,14.53
2022-10-20T03:22:47.494Z,15.77
2022-10-20T03:25:56.092Z,15.37
2022-10-20T03:28:53.279Z,13.70
2022-10-20T03:33:59.992Z,14.43
2022-10-20T03:39:23.550Z,16.13
2022-10-20T03:41:55.485Z,15.32
2022-10-20T03:44:32.507Z,15.45
2022-10-20T03:47:28.050Z,14.25
2022-10-20T03:50:32.918Z,14.78
2022-10-20T03:53:14.413Z,15.68
2022-10-20T03:55:49.337Z,16.27
2022-10-20T03:58:36.543Z,15.57
2022-10-20T04:01:18.276Z,15.40
2022-10-20T04:03:47.417Z,15.20
2022-10-20T04:07:07.763Z,15.70
2022-10-20T04:13:37.006Z,14.85
2022-10-20T04:19:35.694Z,15.83
2022-10-20T04:22:01.686Z,16.35
2022-10-20T04:34:54.459Z,16.07
2022-10-20T04:37:23.558Z,16.80
2022-10-20T04:40:01.611Z,17.20
2022-10-20T04:42:34.360Z,15.70
2022-10-20T04:45:24.169Z,16.48
2022-10-20T04:47:58.488Z,16.55
2022-10-20T04:50:34.829Z,16.73
2022-10-20T04:53:23.725Z,15.83
2022-10-20T04:55:57.105Z,17.48
2022-10-20T04:58:38.364Z,17.45
2022-10-20T05:01:31.772Z,18.23
2022-10-20T05:04:11.766Z,15.90
2022-10-20T05:06:51.346Z,18.50
2022-10-20T05:09:45.138Z,19.27
2022-10-20T05:12:26.055Z,16.95
2022-10-20T05:15:11.388Z,21.97
2022-10-20T05:18:09.185Z,19.57
2022-10-20T05:23:53.754Z,16.13
2022-10-20T05:27:59.616Z,18.33
2022-10-20T05:29:07.109Z,28.70
2022-10-20T05:34:49.648Z,17.13
2022-10-20T05:40:07.800Z,16.02
2022-10-20T05:42:45.079Z,15.78
2022-10-20T05:45:33.963Z,17.92
2022-10-20T06:03:56.971Z,19.25
2022-10-20T06:03:57.889Z,18.20
2022-10-20T06:06:13.849Z,17.12
2022-10-20T06:09:15.045Z,16.82
2022-10-20T06:31:19.567Z,19.37
2022-10-20T06:33:48.744Z,18.52
2022-10-20T06:36:18.499Z,19.20
2022-10-20T06:38:47.748Z,19.92
2022-10-20T06:41:18.625Z,18.90
2022-10-20T06:43:47.458Z,18.90
2022-10-20T06:46:44.371Z,19.40
2022-10-20T06:48:50.036Z,18.92
2022-10-20T06:51:22.899Z,19.57
2022-10-20T06:53:52.536Z,18.35
2022-10-20T06:56:23.655Z,18.52
2022-10-20T06:58:54.753Z,18.65
2022-10-20T07:01:26.325Z,18.65
2022-10-20T07:03:58.031Z,18.20
2022-10-20T07:06:31.921Z,18.15
2022-10-20T07:09:01.093Z,17.40
2022-10-20T07:11:33.808Z,16.57
2022-10-20T07:14:03.347Z,16.75
2022-10-20T07:16:34.429Z,16.73
2022-10-20T07:19:07.483Z,16.10
2022-10-20T07:21:38.378Z,16.52
2022-10-20T07:24:09.583Z,16.87
2022-10-20T07:26:40.634Z,15.93
2022-10-20T07:29:09.730Z,16.42
2022-10-20T07:31:45.852Z,16.57
2022-10-20T07:34:31.734Z,15.65
2022-10-20T07:36:47.442Z,15.98
2022-10-20T07:39:19.596Z,17.23
2022-10-20T07:41:48.515Z,14.35
2022-10-20T07:44:17.942Z,15.55
2022-10-20T07:46:46.762Z,17.07
2022-10-20T07:51:49.140Z,16.70
2022-10-20T07:54:17.888Z,15.23
2022-10-20T07:56:57.524Z,15.72
2022-10-20T07:59:26.456Z,15.70
2022-10-20T08:01:56.280Z,14.10
2022-10-20T08:04:25.681Z,12.37
2022-10-20T08:06:54.484Z,13.55
2022-10-20T08:09:23.232Z,13.85
2022-10-20T08:11:56.904Z,13.53
2022-10-20T08:14:31.356Z,12.60
2022-10-20T08:17:00.568Z,12.95
2022-10-20T08:22:39.703Z,12.45
2022-10-20T08:25:10.507Z,13.05
2022-10-20T08:27:40.576Z,12.68
2022-10-20T08:33:04.936Z,12.78
2022-10-20T08:35:33.675Z,12.63
2022-10-20T08:38:10.030Z,12.03
2022-10-20T08:40:40.704Z,9.93
2022-10-20T08:43:20.061Z,9.83
2022-10-20T08:45:48.795Z,9.73
2022-10-20T08:48:23.431Z,10.58
2022-10-20T08:50:56.837Z,9.18
2022-10-20T08:53:28.179Z,8.95
2022-10-20T08:55:59.142Z,8.63
2022-10-20T08:58:27.811Z,8.48
2022-10-20T09:01:04.003Z,8.98
2022-10-20T09:03:34.180Z,8.90
2022-10-20T09:06:05.780Z,7.30
2022-10-20T09:08:37.831Z,7.65
2022-10-20T09:11:09.611Z,6.95
2022-10-20T09:13:38.965Z,6.78
2022-10-20T09:16:14.944Z,6.83
2022-10-20T09:18:40.918Z,6.08
2022-10-20T09:21:12.568Z,5.75
2022-10-20T09:23:44.369Z,5.83
2022-10-20T09:26:30.802Z,5.50
2022-10-20T09:29:12.058Z,5.58
2022-10-20T09:31:26.320Z,6.15
2022-10-20T09:33:55.008Z,5.60
2022-10-20T09:36:26.148Z,5.58
2022-10-20T09:38:58.964Z,5.20
2022-10-20T09:41:36.724Z,5.05
2022-10-20T09:44:25.924Z,5.90
2022-10-20T09:46:56.452Z,5.22
2022-10-20T09:49:33.931Z,5.00
2022-10-20T09:52:05.415Z,4.78
2022-10-20T09:54:35.550Z,5.17
2022-10-20T09:57:12.134Z,4.50
2022-10-20T09:59:43.299Z,5.30
2022-10-20T10:02:26.874Z,4.70
2022-10-20T10:04:58.923Z,4.08
2022-10-20T10:07:32.305Z,3.98
2022-10-20T10:10:05.713Z,4.60
2022-10-20T10:12:38.296Z,3.30
2022-10-20T10:15:10.204Z,3.52
2022-10-20T10:17:44.548Z,3.77
2022-10-20T10:20:17.885Z,3.55
2022-10-20T10:22:46.638Z,3.90
2022-10-20T10:25:20.931Z,4.10
2022-10-20T10:28:03.020Z,4.15
2022-10-20T10:30:34.664Z,6.15
2022-10-20T10:33:04.998Z,4.17
2022-10-20T10:35:41.816Z,4.45
2022-10-20T10:38:15.197Z,3.62
2022-10-20T10:40:51.666Z,4.00
2022-10-20T10:43:40.188Z,3.33
2022-10-20T10:46:31.037Z,4.08
2022-10-20T10:49:02.614Z,3.58
2022-10-20T10:51:34.265Z,4.22
2022-10-20T10:54:25.992Z,3.95
2022-10-20T10:57:07.958Z,3.98
2022-10-20T10:59:39.131Z,3.72
2022-10-20T11:02:38.223Z,3.67
2022-10-20T11:05:27.756Z,3.37
2022-10-20T11:08:24.892Z,3.77
2022-10-20T11:11:21.050Z,3.92
2022-10-20T11:13:52.583Z,4.30
2022-10-20T11:16:39.155Z,4.30
2022-10-20T11:19:16.583Z,4.22
2022-10-20T11:22:11.843Z,3.90
2022-10-20T11:24:54.212Z,3.72
2022-10-20T11:27:25.757Z,3.85
2022-10-20T11:30:02.331Z,3.33
2022-10-20T11:33:00.840Z,3.70
2022-10-20T11:35:48.861Z,3.98
2022-10-20T11:38:22.965Z,3.75
2022-10-20T11:40:57.365Z,3.85
2022-10-20T11:43:30.570Z,4.20
2022-10-20T11:46:04.795Z,3.35
2022-10-20T11:48:45.447Z,3.80
2022-10-20T11:51:34.881Z,4.15
2022-10-20T11:54:31.960Z,4.03
2022-10-20T11:57:21.683Z,3.58
2022-10-20T12:00:05.694Z,3.92
2022-10-20T12:02:54.024Z,3.50
2022-10-20T12:05:42.305Z,3.58
2022-10-20T12:08:38.275Z,3.65
2022-10-20T12:11:18.982Z,3.72
2022-10-20T12:14:06.879Z,3.10
2022-10-20T12:16:58.435Z,3.55
2022-10-20T12:19:32.736Z,4.05
2022-10-20T12:22:16.371Z,3.30
2022-10-20T12:24:53.759Z,3.83
2022-10-20T12:27:27.821Z,3.45
2022-10-20T12:30:15.668Z,3.75
2022-10-20T12:33:01.027Z,3.65
2022-10-20T12:35:32.036Z,3.55
2022-10-20T12:38:04.285Z,3.83
2022-10-20T12:40:57.919Z,3.90
2022-10-20T12:43:35.369Z,3.40
2022-10-20T12:46:09.943Z,3.75
2022-10-20T12:48:43.998Z,3.60
2022-10-20T12:51:24.551Z,3.77
2022-10-20T12:54:05.749Z,3.72
2022-10-20T12:56:40.306Z,3.75
2022-10-20T12:59:24.239Z,3.55
2022-10-20T13:02:15.434Z,3.67
2022-10-20T13:05:20.696Z,3.98
2022-10-20T13:07:59.709Z,3.50
2022-10-20T13:10:42.488Z,3.77
2022-10-20T13:13:15.624Z,3.52
2022-10-20T13:18:45.658Z,3.62
2022-10-20T13:21:23.742Z,3.17
2022-10-20T13:24:07.296Z,3.22
2022-10-20T13:26:42.564Z,2.90
2022-10-20T13:29:22.984Z,3.40
2022-10-20T13:32:17.540Z,3.50
2022-10-20T13:34:53.733Z,2.90
2022-10-20T13:37:45.156Z,4.15
2022-10-20T13:40:25.730Z,3.75
2022-10-20T13:43:03.710Z,3.50
2022-10-20T13:45:47.245Z,3.20
2022-10-20T13:48:35.833Z,3.30
2022-10-20T13:51:07.606Z,3.47
2022-10-20T13:53:44.248Z,2.87
2022-10-20T13:56:23.607Z,3.27
2022-10-20T13:59:08.937Z,2.65
2022-10-20T14:01:38.399Z,3.15
2022-10-20T14:04:35.962Z,3.02
2022-10-20T14:08:23.423Z,3.33
2022-10-20T14:09:54.684Z,3.40
2022-10-20T14:12:26.354Z,3.60
2022-10-20T14:15:02.080Z,2.70
2022-10-20T14:17:31.101Z,3.37
2022-10-20T14:20:22.079Z,2.65
2022-10-20T14:22:53.701Z,2.75
2022-10-20T14:25:24.463Z,3.30
2022-10-20T14:27:54.310Z,2.75
2022-10-20T14:30:24.299Z,2.70
2022-10-20T14:32:56.380Z,2.92
2022-10-20T14:35:33.742Z,3.12
2022-10-20T14:38:12.988Z,3.17
2022-10-20T14:40:41.897Z,3.05
2022-10-20T14:43:33.271Z,3.05
2022-10-20T14:46:03.825Z,3.62
2022-10-20T14:48:38.245Z,3.67
2022-10-20T14:51:40.581Z,3.30
2022-10-20T14:54:26.777Z,3.30
2022-10-20T14:57:02.395Z,3.22
2022-10-20T14:59:34.792Z,3.30
2022-10-20T15:02:20.931Z,3.08
2022-10-20T15:04:52.391Z,3.58
2022-10-20T15:07:35.764Z,3.77
2022-10-20T15:10:10.402Z,4.05
2022-10-20T15:12:45.357Z,3.58
2022-10-20T15:15:56.733Z,3.42
2022-10-20T15:18:25.639Z,3.75
2022-10-20T15:20:55.979Z,3.90
2022-10-20T15:23:27.679Z,4.22
2022-10-20T15:26:08.363Z,4.30
2022-10-20T15:28:48.269Z,4.62
2022-10-20T15:31:22.975Z,4.03
2022-10-20T15:33:53.005Z,4.08
2022-10-20T15:36:25.484Z,4.17
2022-10-20T15:38:54.444Z,4.58
2022-10-20T15:41:26.504Z,4.33
2022-10-20T15:43:55.304Z,4.22
2022-10-20T15:46:24.579Z,4.53
2022-10-20T15:48:56.185Z,4.28
2022-10-20T15:51:35.734Z,4.45
2022-10-20T15:54:04.514Z,3.98
2022-10-20T15:56:34.068Z,3.83
2022-10-20T15:59:12.704Z,4.45
2022-10-20T16:01:41.453Z,4.20
2022-10-20T16:04:19.237Z,4.53
2022-10-20T16:06:48.081Z,4.80
2022-10-20T16:09:16.745Z,5.22
2022-10-20T16:11:46.225Z,5.45
2022-10-20T16:14:16.883Z,4.62
2022-10-20T16:16:45.831Z,4.67
2022-10-20T16:19:14.487Z,4.95
2022-10-20T16:21:45.902Z,4.78
2022-10-20T16:24:14.552Z,5.58
2022-10-20T16:26:43.221Z,4.42
2022-10-20T16:29:11.882Z,5.45
2022-10-20T16:31:40.571Z,5.28
2022-10-20T16:34:09.176Z,4.85
2022-10-20T16:36:38.634Z,6.08
2022-10-20T16:39:07.211Z,7.20
2022-10-20T16:41:35.926Z,7.58
2022-10-20T16:44:06.008Z,7.45
2022-10-20T16:46:34.673Z,8.95
2022-10-20T16:49:05.288Z,7.53
2022-10-20T16:51:34.223Z,7.85
2022-10-20T16:54:03.412Z,7.50
2022-10-20T16:56:32.392Z,11.80
2022-10-20T16:59:01.970Z,7.12
2022-10-20T17:01:31.913Z,7.58
2022-10-20T17:04:04.877Z,7.28
2022-10-20T17:06:33.446Z,7.05
2022-10-20T17:09:05.271Z,7.40
2022-10-20T17:11:34.764Z,7.28
2022-10-20T17:14:03.493Z,7.15
2022-10-20T17:16:34.452Z,40.10
2022-10-20T17:19:03.923Z,23.50
2022-10-20T17:21:34.294Z,8.78
2022-10-20T17:24:14.853Z,7.85
2022-10-20T17:26:43.850Z,8.35
2022-10-20T17:29:12.738Z,8.35
2022-10-20T17:31:41.497Z,9.00
2022-10-20T17:34:10.979Z,8.78
2022-10-20T17:36:39.617Z,7.47
2022-10-20T17:39:12.401Z,7.87
2022-10-20T17:41:40.977Z,7.22
2022-10-20T17:44:10.479Z,11.48
2022-10-20T17:46:42.267Z,9.43
2022-10-20T17:49:10.907Z,8.30
2022-10-20T17:51:39.468Z,7.78
2022-10-20T17:54:10.183Z,7.90
2022-10-20T17:56:40.436Z,8.15
2022-10-20T17:59:09.480Z,8.83
2022-10-20T18:01:41.313Z,7.40
2022-10-20T18:04:13.051Z,8.50
2022-10-20T18:06:43.047Z,7.50
2022-10-20T18:09:14.425Z,8.23
2022-10-20T18:11:45.954Z,7.65
2022-10-20T18:14:14.960Z,9.38
2022-10-20T18:16:44.001Z,8.55
2022-10-20T18:19:18.378Z,8.25
2022-10-20T18:21:47.580Z,7.65
2022-10-20T18:24:18.299Z,7.10
2022-10-20T18:26:47.827Z,7.97
2022-10-20T18:29:18.749Z,8.38
2022-10-20T18:31:50.538Z,8.63
2022-10-20T18:34:25.128Z,8.80
2022-10-20T18:36:56.459Z,8.00
2022-10-20T18:39:44.493Z,7.80
2022-10-20T18:42:14.175Z,8.23
2022-10-20T18:44:42.740Z,7.75
2022-10-20T18:47:11.701Z,11.78
2022-10-20T18:49:43.129Z,11.03
2022-10-20T18:52:11.690Z,8.58
2022-10-20T18:54:40.433Z,8.03
2022-10-20T18:57:09.101Z,8.03
2022-10-20T18:59:40.811Z,7.87
2022-10-20T19:02:12.830Z,8.88
2022-10-20T19:04:41.517Z,8.48
2022-10-20T19:07:13.244Z,8.03
2022-10-20T19:09:41.968Z,8.47
2022-10-20T19:12:13.293Z,8.58
2022-10-20T19:14:41.986Z,9.00
2022-10-20T19:17:10.746Z,8.58
2022-10-20T19:19:43.667Z,8.98
2022-10-20T19:22:12.248Z,7.90
2022-10-20T19:24:43.468Z,9.05
2022-10-20T19:27:26.225Z,8.80
2022-10-20T19:29:42.496Z,9.08
2022-10-20T19:32:12.131Z,9.15
2022-10-20T19:34:42.214Z,52.50
2022-10-20T19:37:11.238Z,13.60
2022-10-20T19:39:42.612Z,10.70
2022-10-20T19:42:12.254Z,8.65
2022-10-20T19:44:41.658Z,8.83
2022-10-20T19:47:18.224Z,9.00
2022-10-20T19:49:47.853Z,9.03
2022-10-20T19:52:17.965Z,9.95
2022-10-20T19:54:46.714Z,9.68
2022-10-20T19:57:16.779Z,10.35
2022-10-20T19:59:47.158Z,10.38
2022-10-20T20:02:16.076Z,10.25
2022-10-20T20:04:47.564Z,10.32
2022-10-20T20:07:20.601Z,10.00
2022-10-20T20:09:51.691Z,8.97
2022-10-20T20:12:21.722Z,9.38
2022-10-20T20:15:10.962Z,9.07
2022-10-20T20:17:52.433Z,9.93
2022-10-20T20:20:30.303Z,9.47
2022-10-20T20:23:06.187Z,9.07
2022-10-20T20:25:42.509Z,9.27
2022-10-20T20:28:17.244Z,9.17
2022-10-20T20:31:02.516Z,9.48
2022-10-20T20:33:49.455Z,9.23
2022-10-20T20:36:14.057Z,9.17
2022-10-20T20:38:43.065Z,9.10
2022-10-20T20:41:32.445Z,9.53
2022-10-20T20:43:54.185Z,9.35
2022-10-20T20:46:30.369Z,9.23
2022-10-20T20:49:01.486Z,10.55
2022-10-20T20:51:33.632Z,10.15
2022-10-20T20:54:11.036Z,9.63
2022-10-20T20:56:41.382Z,9.47
2022-10-20T20:59:10.214Z,9.33
2022-10-20T21:01:46.760Z,8.95
2022-10-20T21:04:17.427Z,9.30
2022-10-20T21:07:01.848Z,9.27
2022-10-20T21:09:18.073Z,9.48
2022-10-20T21:11:49.133Z,9.83
2022-10-20T21:14:20.078Z,8.73
2022-10-20T21:16:48.641Z,9.47
2022-10-20T21:19:17.388Z,9.10
2022-10-20T21:21:50.078Z,9.70
2022-10-20T21:24:19.715Z,9.00
2022-10-20T21:26:48.893Z,9.37
2022-10-20T21:29:17.713Z,10.00
2022-10-20T21:31:46.318Z,9.00
2022-10-20T21:34:17.895Z,9.53
2022-10-20T21:36:46.441Z,9.13
2022-10-20T21:39:16.365Z,9.30
2022-10-20T21:41:46.732Z,9.50
2022-10-20T21:44:15.523Z,9.20
2022-10-20T21:46:47.998Z,9.40
2022-10-20T21:49:19.622Z,9.57
2022-10-20T21:51:50.659Z,10.00
2022-10-20T21:54:22.399Z,10.63
2022-10-20T21:56:51.352Z,11.13
2022-10-20T21:59:30.683Z,10.43
2022-10-20T22:02:01.982Z,9.30
2022-10-20T22:04:40.314Z,9.50
2022-10-20T22:07:08.894Z,9.90
2022-10-20T22:09:39.208Z,10.67
2022-10-20T22:12:07.896Z,9.73
2022-10-20T22:14:36.641Z,9.77
2022-10-20T22:17:06.910Z,10.47
2022-10-20T22:19:35.644Z,10.20
2022-10-20T22:22:04.325Z,10.60
2022-10-20T22:24:35.806Z,10.43
2022-10-20T22:27:15.502Z,12.63
2022-10-20T22:29:39.414Z,13.63
2022-10-20T22:32:11.106Z,13.87
2022-10-20T22:34:39.847Z,14.60
2022-10-20T22:37:08.555Z,17.30
2022-10-20T22:39:38.739Z,19.97
2022-10-20T22:42:09.065Z,19.50
2022-10-20T22:44:37.834Z,20.27
2022-10-20T22:47:07.977Z,21.33
2022-10-20T22:49:37.470Z,23.10
2022-10-20T22:52:06.164Z,22.97
2022-10-20T22:54:34.825Z,23.63
2022-10-20T22:57:03.460Z,23.37
2022-10-20T23:00:21.183Z,22.17
2022-10-20T23:02:51.501Z,22.03
2022-10-20T23:05:21.395Z,21.40
2022-10-20T23:07:49.973Z,20.93
2022-10-20T23:10:24.501Z,17.97
2022-10-20T23:12:53.026Z,18.73
2022-10-20T23:15:21.675Z,17.40
2022-10-20T23:17:50.331Z,17.07
2022-10-20T23:20:21.609Z,15.87
2022-10-20T23:22:50.526Z,16.80
2022-10-20T23:25:22.184Z,16.00
2022-10-20T23:27:50.865Z,15.20
2022-10-20T23:30:19.617Z,14.83
2022-10-20T23:32:48.444Z,13.50
2022-10-20T23:35:17.223Z,14.63
2022-10-20T23:37:47.614Z,15.03
2022-10-20T23:40:16.399Z,13.63
2022-10-20T23:42:46.856Z,13.60
2022-10-20T23:45:15.803Z,13.50
2022-10-20T23:47:44.608Z,13.93
2022-10-20T23:50:14.052Z,12.43
2022-10-20T23:52:45.195Z,10.60
2022-10-20T23:55:18.599Z,11.57
2022-10-20T23:57:49.772Z,12.00
